sensor_id;sensor_type;location;lat;lon;timestamp;P1;durP1;ratioP1;P2;durP2;ratioP2
16524;SDS011;8375;33.594;-117.718;2023-08-30T00:00:03;6.22;;;4.13;;
16524;SDS011;8375;33.594;-117.718;2023-08-30T00:02:33;7.07;;;4.47;;
16524;SDS011;8375;33.594;-117.718;2023-08-30T00:05:02;6.50;;;3.72;;
16524;SDS011;8375;33.594;-117.718;2023-08-30T00:07:32;7.75;;;3.55;;
16524;SDS011;8375;33.594;-117.718;2023-08-30T00:10:03;7.20;;;3.92;;
16524;SDS011;8375;33.594;-117.718;2023-08-30T00:12:33;7.65;;;3.80;;
16524;SDS011;8375;33.594;-117.718;2023-08-30T00:15:03;7.10;;;4.00;;
16524;SDS011;8375;33.594;-117.718;2023-08-30T00:17:32;8.13;;;3.90;;
16524;SDS011;8375;33.594;-117.718;2023-08-30T00:20:01;10.10;;;4.13;;
16524;SDS011;8375;33.594;-117.718;2023-08-30T00:22:30;6.28;;;4.35;;
16524;SDS011;8375;33.594;-117.718;2023-08-30T00:24:59;7.90;;;4.03;;
16524;SDS011;8375;33.594;-117.718;2023-08-30T00:27:29;8.07;;;4.45;;
16524;SDS011;8375;33.594;-117.718;2023-08-30T00:29:58;8.07;;;4.55;;
16524;SDS011;8375;33.594;-117.718;2023-08-30T00:32:27;8.57;;;4.43;;
16524;SDS011;8375;33.594;-117.718;2023-08-30T00:34:56;7.50;;;4.82;;
16524;SDS011;8375;33.594;-117.718;2023-08-30T00:37:25;9.20;;;4.97;;
16524;SDS011;8375;33.594;-117.718;2023-08-30T00:39:54;9.52;;;5.05;;
16524;SDS011;8375;33.594;-117.718;2023-08-30T00:42:25;8.57;;;5.18;;
16524;SDS011;8375;33.594;-117.718;2023-08-30T00:44:56;14.73;;;5.90;;
16524;SDS011;8375;33.594;-117.718;2023-08-30T00:47:25;19.25;;;5.78;;
16524;SDS011;8375;33.594;-117.718;2023-08-30T00:49:54;8.43;;;5.45;;
16524;SDS011;8375;33.594;-117.718;2023-08-30T00:52:23;8.18;;;5.10;;
16524;SDS011;8375;33.594;-117.718;2023-08-30T00:54:55;8.60;;;5.45;;
16524;SDS011;8375;33.594;-117.718;2023-08-30T00:57:24;9.85;;;5.70;;
16524;SDS011;8375;33.594;-117.718;2023-08-30T00:59:53;9.73;;;5.80;;
16524;SDS011;8375;33.594;-117.718;2023-08-30T01:02:25;9.15;;;5.32;;
16524;SDS011;8375;33.594;-117.718;2023-08-30T01:04:55;12.10;;;6.05;;
16524;SDS011;8375;33.594;-117.718;2023-08-30T01:07:24;10.02;;;5.50;;
16524;SDS011;8375;33.594;-117.718;2023-08-30T01:09:54;9.05;;;5.15;;
16524;SDS011;8375;33.594;-117.718;2023-08-30T01:12:24;8.15;;;5.50;;
16524;SDS011;8375;33.594;-117.718;2023-08-30T01:15:01;9.50;;;6.10;;
16524;SDS011;8375;33.594;-117.718;2023-08-30T01:17:36;9.65;;;6.05;;
16524;SDS011;8375;33.594;-117.718;2023-08-30T01:20:07;12.25;;;6.40;;
16524;SDS011;8375;33.594;-117.718;2023-08-30T01:22:40;9.50;;;5.82;;
16524;SDS011;8375;33.594;-117.718;2023-08-30T01:25:17;9.98;;;6.15;;
16524;SDS011;8375;33.594;-117.718;2023-08-30T01:27:56;10.20;;;6.72;;
16524;SDS011;8375;33.594;-117.718;2023-08-30T01:30:28;10.23;;;6.50;;
16524;SDS011;8375;33.594;-117.718;2023-08-30T01:32:58;12.73;;;5.72;;
16524;SDS011;8375;33.594;-117.718;2023-08-30T01:35:29;11.95;;;6.57;;
16524;SDS011;8375;33.594;-117.718;2023-08-30T01:38:01;11.30;;;6.40;;
16524;SDS011;8375;33.594;-117.718;2023-08-30T01:40:32;9.63;;;6.20;;
16524;SDS011;8375;33.594;-117.718;2023-08-30T01:43:05;8.30;;;5.43;;
16524;SDS011;8375;33.594;-117.718;2023-08-30T01:45:38;11.45;;;5.88;;
16524;SDS011;8375;33.594;-117.718;2023-08-30T01:48:09;10.55;;;5.85;;
16524;SDS011;8375;33.594;-117.718;2023-08-30T01:50:39;8.55;;;5.22;;
16524;SDS011;8375;33.594;-117.718;2023-08-30T01:53:09;11.52;;;6.80;;
16524;SDS011;8375;33.594;-117.718;2023-08-30T01:55:39;10.45;;;6.00;;
16524;SDS011;8375;33.594;-117.718;2023-08-30T01:58:10;10.82;;;5.97;;
16524;SDS011;8375;33.594;-117.718;2023-08-30T02:00:39;11.05;;;5.93;;
16524;SDS011;8375;33.594;-117.718;2023-08-30T02:03:08;9.82;;;6.00;;
16524;SDS011;8375;33.594;-117.718;2023-08-30T02:05:39;11.30;;;6.40;;
16524;SDS011;8375;33.594;-117.718;2023-08-30T02:08:15;12.55;;;5.07;;
16524;SDS011;8375;33.594;-117.718;2023-08-30T02:10:48;8.60;;;4.95;;
16524;SDS011;8375;33.594;-117.718;2023-08-30T02:13:24;8.02;;;5.05;;
16524;SDS011;8375;33.594;-117.718;2023-08-30T02:15:54;9.40;;;5.55;;
16524;SDS011;8375;33.594;-117.718;2023-08-30T02:18:24;9.95;;;5.07;;
16524;SDS011;8375;33.594;-117.718;2023-08-30T02:20:54;7.78;;;5.22;;
16524;SDS011;8375;33.594;-117.718;2023-08-30T02:23:23;9.25;;;5.47;;
16524;SDS011;8375;33.594;-117.718;2023-08-30T02:25:53;6.97;;;4.60;;
16524;SDS011;8375;33.594;-117.718;2023-08-30T02:28:24;8.27;;;4.68;;
16524;SDS011;8375;33.594;-117.718;2023-08-30T02:30:53;6.55;;;5.00;;
16524;SDS011;8375;33.594;-117.718;2023-08-30T02:33:24;9.80;;;5.22;;
16524;SDS011;8375;33.594;-117.718;2023-08-30T02:35:53;7.55;;;4.88;;
16524;SDS011;8375;33.594;-117.718;2023-08-30T02:38:21;10.80;;;5.30;;
16524;SDS011;8375;33.594;-117.718;2023-08-30T02:40:50;11.50;;;5.53;;
16524;SDS011;8375;33.594;-117.718;2023-08-30T02:43:19;7.97;;;5.43;;
16524;SDS011;8375;33.594;-117.718;2023-08-30T02:45:50;8.55;;;5.15;;
16524;SDS011;8375;33.594;-117.718;2023-08-30T02:48:19;9.10;;;5.53;;
16524;SDS011;8375;33.594;-117.718;2023-08-30T02:50:47;10.38;;;5.40;;
16524;SDS011;8375;33.594;-117.718;2023-08-30T02:53:16;10.20;;;5.70;;
16524;SDS011;8375;33.594;-117.718;2023-08-30T02:55:46;9.13;;;5.00;;
16524;SDS011;8375;33.594;-117.718;2023-08-30T02:58:15;7.65;;;5.20;;
16524;SDS011;8375;33.594;-117.718;2023-08-30T03:00:43;12.40;;;6.20;;
16524;SDS011;8375;33.594;-117.718;2023-08-30T03:03:14;9.73;;;5.53;;
16524;SDS011;8375;33.594;-117.718;2023-08-30T03:05:42;11.68;;;5.70;;
16524;SDS011;8375;33.594;-117.718;2023-08-30T03:08:11;8.75;;;5.60;;
16524;SDS011;8375;33.594;-117.718;2023-08-30T03:10:40;10.50;;;5.40;;
16524;SDS011;8375;33.594;-117.718;2023-08-30T03:13:09;10.88;;;5.72;;
16524;SDS011;8375;33.594;-117.718;2023-08-30T03:15:37;11.52;;;5.85;;
16524;SDS011;8375;33.594;-117.718;2023-08-30T03:18:06;12.77;;;5.75;;
16524;SDS011;8375;33.594;-117.718;2023-08-30T03:20:37;9.00;;;6.07;;
16524;SDS011;8375;33.594;-117.718;2023-08-30T03:23:05;9.45;;;5.40;;
16524;SDS011;8375;33.594;-117.718;2023-08-30T03:25:34;10.32;;;5.38;;
16524;SDS011;8375;33.594;-117.718;2023-08-30T03:28:03;9.68;;;5.75;;
16524;SDS011;8375;33.594;-117.718;2023-08-30T03:30:32;10.73;;;6.05;;
16524;SDS011;8375;33.594;-117.718;2023-08-30T03:33:01;10.35;;;6.40;;
16524;SDS011;8375;33.594;-117.718;2023-08-30T03:35:33;8.73;;;5.40;;
16524;SDS011;8375;33.594;-117.718;2023-08-30T03:38:04;9.65;;;5.68;;
16524;SDS011;8375;33.594;-117.718;2023-08-30T03:40:32;11.40;;;6.10;;
16524;SDS011;8375;33.594;-117.718;2023-08-30T03:43:01;11.05;;;6.47;;
16524;SDS011;8375;33.594;-117.718;2023-08-30T03:45:34;10.27;;;5.93;;
16524;SDS011;8375;33.594;-117.718;2023-08-30T03:48:03;12.05;;;6.25;;
16524;SDS011;8375;33.594;-117.718;2023-08-30T03:50:33;9.43;;;5.85;;
16524;SDS011;8375;33.594;-117.718;2023-08-30T03:53:01;11.30;;;6.22;;
16524;SDS011;8375;33.594;-117.718;2023-08-30T03:55:32;9.02;;;5.78;;
16524;SDS011;8375;33.594;-117.718;2023-08-30T03:58:01;9.02;;;6.13;;
16524;SDS011;8375;33.594;-117.718;2023-08-30T04:00:30;11.40;;;5.72;;
16524;SDS011;8375;33.594;-117.718;2023-08-30T04:03:00;10.57;;;6.55;;
16524;SDS011;8375;33.594;-117.718;2023-08-30T04:05:32;12.85;;;6.95;;
16524;SDS011;8375;33.594;-117.718;2023-08-30T04:08:01;12.50;;;6.70;;
16524;SDS011;8375;33.594;-117.718;2023-08-30T04:10:33;9.27;;;6.22;;
16524;SDS011;8375;33.594;-117.718;2023-08-30T04:13:02;11.60;;;6.40;;
16524;SDS011;8375;33.594;-117.718;2023-08-30T04:15:32;11.27;;;6.18;;
16524;SDS011;8375;33.594;-117.718;2023-08-30T04:18:01;12.98;;;6.00;;
16524;SDS011;8375;33.594;-117.718;2023-08-30T04:20:31;11.48;;;6.78;;
16524;SDS011;8375;33.594;-117.718;2023-08-30T04:23:00;11.98;;;6.53;;
16524;SDS011;8375;33.594;-117.718;2023-08-30T04:25:29;12.00;;;6.30;;
16524;SDS011;8375;33.594;-117.718;2023-08-30T04:28:01;10.80;;;5.95;;
16524;SDS011;8375;33.594;-117.718;2023-08-30T04:30:31;9.05;;;6.07;;
16524;SDS011;8375;33.594;-117.718;2023-08-30T04:32:59;13.10;;;6.13;;
16524;SDS011;8375;33.594;-117.718;2023-08-30T04:35:29;9.88;;;6.05;;
16524;SDS011;8375;33.594;-117.718;2023-08-30T04:37:58;11.38;;;7.00;;
16524;SDS011;8375;33.594;-117.718;2023-08-30T04:40:27;11.50;;;6.93;;
16524;SDS011;8375;33.594;-117.718;2023-08-30T04:42:58;11.60;;;7.18;;
16524;SDS011;8375;33.594;-117.718;2023-08-30T04:45:27;10.88;;;7.00;;
16524;SDS011;8375;33.594;-117.718;2023-08-30T04:47:55;12.00;;;6.68;;
16524;SDS011;8375;33.594;-117.718;2023-08-30T04:50:24;12.65;;;6.55;;
16524;SDS011;8375;33.594;-117.718;2023-08-30T04:52:53;14.43;;;6.82;;
16524;SDS011;8375;33.594;-117.718;2023-08-30T04:55:23;17.00;;;7.50;;
16524;SDS011;8375;33.594;-117.718;2023-08-30T04:57:52;12.10;;;7.00;;
16524;SDS011;8375;33.594;-117.718;2023-08-30T05:00:23;13.00;;;6.90;;
16524;SDS011;8375;33.594;-117.718;2023-08-30T05:02:51;13.80;;;7.43;;
16524;SDS011;8375;33.594;-117.718;2023-08-30T05:05:20;14.30;;;6.70;;
16524;SDS011;8375;33.594;-117.718;2023-08-30T05:07:49;14.02;;;7.05;;
16524;SDS011;8375;33.594;-117.718;2023-08-30T05:10:18;11.85;;;6.85;;
16524;SDS011;8375;33.594;-117.718;2023-08-30T05:12:46;11.75;;;6.72;;
16524;SDS011;8375;33.594;-117.718;2023-08-30T05:15:17;13.20;;;6.78;;
16524;SDS011;8375;33.594;-117.718;2023-08-30T05:17:47;15.95;;;7.50;;
16524;SDS011;8375;33.594;-117.718;2023-08-30T05:20:16;14.02;;;6.82;;
16524;SDS011;8375;33.594;-117.718;2023-08-30T05:22:45;15.52;;;6.93;;
16524;SDS011;8375;33.594;-117.718;2023-08-30T05:25:13;12.07;;;6.85;;
16524;SDS011;8375;33.594;-117.718;2023-08-30T05:27:42;13.60;;;7.13;;
16524;SDS011;8375;33.594;-117.718;2023-08-30T05:30:11;12.40;;;6.72;;
16524;SDS011;8375;33.594;-117.718;2023-08-30T05:32:40;15.75;;;6.55;;
16524;SDS011;8375;33.594;-117.718;2023-08-30T05:35:11;14.25;;;7.18;;
16524;SDS011;8375;33.594;-117.718;2023-08-30T05:37:39;15.48;;;7.60;;
16524;SDS011;8375;33.594;-117.718;2023-08-30T05:40:09;11.32;;;6.90;;
16524;SDS011;8375;33.594;-117.718;2023-08-30T05:42:41;12.00;;;6.90;;
16524;SDS011;8375;33.594;-117.718;2023-08-30T05:45:10;16.85;;;7.85;;
16524;SDS011;8375;33.594;-117.718;2023-08-30T05:47:39;12.63;;;6.88;;
16524;SDS011;8375;33.594;-117.718;2023-08-30T05:50:08;17.88;;;7.13;;
16524;SDS011;8375;33.594;-117.718;2023-08-30T05:52:39;14.25;;;7.43;;
16524;SDS011;8375;33.594;-117.718;2023-08-30T05:55:10;14.60;;;7.63;;
16524;SDS011;8375;33.594;-117.718;2023-08-30T05:57:39;17.45;;;7.30;;
16524;SDS011;8375;33.594;-117.718;2023-08-30T06:00:11;15.55;;;7.47;;
16524;SDS011;8375;33.594;-117.718;2023-08-30T06:02:40;15.48;;;7.38;;
16524;SDS011;8375;33.594;-117.718;2023-08-30T06:05:11;16.08;;;7.55;;
16524;SDS011;8375;33.594;-117.718;2023-08-30T06:07:40;16.65;;;8.00;;
16524;SDS011;8375;33.594;-117.718;2023-08-30T06:10:09;17.60;;;7.82;;
16524;SDS011;8375;33.594;-117.718;2023-08-30T06:12:38;14.23;;;7.50;;
16524;SDS011;8375;33.594;-117.718;2023-08-30T06:15:07;16.25;;;7.28;;
16524;SDS011;8375;33.594;-117.718;2023-08-30T06:17:36;16.70;;;7.88;;
16524;SDS011;8375;33.594;-117.718;2023-08-30T06:20:05;17.20;;;7.35;;
16524;SDS011;8375;33.594;-117.718;2023-08-30T06:22:36;12.73;;;7.78;;
16524;SDS011;8375;33.594;-117.718;2023-08-30T06:25:05;18.63;;;7.88;;
16524;SDS011;8375;33.594;-117.718;2023-08-30T06:27:36;15.93;;;7.28;;
16524;SDS011;8375;33.594;-117.718;2023-08-30T06:30:10;12.82;;;7.03;;
16524;SDS011;8375;33.594;-117.718;2023-08-30T06:32:39;16.77;;;7.55;;
16524;SDS011;8375;33.594;-117.718;2023-08-30T06:35:08;16.92;;;8.07;;
16524;SDS011;8375;33.594;-117.718;2023-08-30T06:37:39;17.20;;;8.48;;
16524;SDS011;8375;33.594;-117.718;2023-08-30T06:40:08;19.92;;;8.15;;
16524;SDS011;8375;33.594;-117.718;2023-08-30T06:42:37;16.98;;;7.45;;
16524;SDS011;8375;33.594;-117.718;2023-08-30T06:45:06;17.73;;;8.00;;
16524;SDS011;8375;33.594;-117.718;2023-08-30T06:47:35;13.38;;;7.28;;
16524;SDS011;8375;33.594;-117.718;2023-08-30T06:50:04;16.92;;;8.25;;
16524;SDS011;8375;33.594;-117.718;2023-08-30T06:52:35;15.95;;;8.02;;
16524;SDS011;8375;33.594;-117.718;2023-08-30T06:55:05;18.33;;;8.82;;
16524;SDS011;8375;33.594;-117.718;2023-08-30T06:57:35;16.50;;;7.63;;
16524;SDS011;8375;33.594;-117.718;2023-08-30T07:00:04;17.63;;;8.15;;
16524;SDS011;8375;33.594;-117.718;2023-08-30T07:02:35;17.95;;;8.32;;
16524;SDS011;8375;33.594;-117.718;2023-08-30T07:05:05;19.85;;;8.52;;
16524;SDS011;8375;33.594;-117.718;2023-08-30T07:07:34;16.00;;;8.73;;
16524;SDS011;8375;33.594;-117.718;2023-08-30T07:10:03;19.88;;;8.10;;
16524;SDS011;8375;33.594;-117.718;2023-08-30T07:12:34;19.08;;;8.75;;
16524;SDS011;8375;33.594;-117.718;2023-08-30T07:15:02;16.63;;;8.82;;
16524;SDS011;8375;33.594;-117.718;2023-08-30T07:17:32;21.10;;;8.65;;
16524;SDS011;8375;33.594;-117.718;2023-08-30T07:20:01;19.55;;;8.70;;
16524;SDS011;8375;33.594;-117.718;2023-08-30T07:22:34;16.90;;;7.80;;
16524;SDS011;8375;33.594;-117.718;2023-08-30T07:25:02;17.83;;;7.95;;
16524;SDS011;8375;33.594;-117.718;2023-08-30T07:27:34;16.70;;;8.40;;
16524;SDS011;8375;33.594;-117.718;2023-08-30T07:30:03;21.33;;;8.65;;
16524;SDS011;8375;33.594;-117.718;2023-08-30T07:32:33;20.00;;;8.00;;
16524;SDS011;8375;33.594;-117.718;2023-08-30T07:35:03;17.48;;;8.25;;
16524;SDS011;8375;33.594;-117.718;2023-08-30T07:37:33;15.95;;;8.57;;
16524;SDS011;8375;33.594;-117.718;2023-08-30T07:40:03;17.88;;;7.88;;
16524;SDS011;8375;33.594;-117.718;2023-08-30T07:42:34;19.08;;;8.85;;
16524;SDS011;8375;33.594;-117.718;2023-08-30T07:45:03;21.35;;;9.63;;
16524;SDS011;8375;33.594;-117.718;2023-08-30T07:47:36;21.67;;;9.40;;
16524;SDS011;8375;33.594;-117.718;2023-08-30T07:50:05;16.40;;;8.73;;
16524;SDS011;8375;33.594;-117.718;2023-08-30T07:52:34;21.42;;;9.25;;
16524;SDS011;8375;33.594;-117.718;2023-08-30T07:55:03;22.40;;;9.98;;
16524;SDS011;8375;33.594;-117.718;2023-08-30T07:57:35;21.73;;;10.15;;
16524;SDS011;8375;33.594;-117.718;2023-08-30T08:00:04;17.17;;;8.93;;
16524;SDS011;8375;33.594;-117.718;2023-08-30T08:02:33;18.23;;;9.15;;
16524;SDS011;8375;33.594;-117.718;2023-08-30T08:05:02;23.23;;;10.85;;
16524;SDS011;8375;33.594;-117.718;2023-08-30T08:07:31;20.50;;;9.68;;
16524;SDS011;8375;33.594;-117.718;2023-08-30T08:09:59;20.83;;;9.43;;
16524;SDS011;8375;33.594;-117.718;2023-08-30T08:12:32;24.90;;;10.43;;
16524;SDS011;8375;33.594;-117.718;2023-08-30T08:15:01;22.95;;;10.00;;
16524;SDS011;8375;33.594;-117.718;2023-08-30T08:17:30;23.20;;;9.95;;
16524;SDS011;8375;33.594;-117.718;2023-08-30T08:19:58;23.25;;;9.48;;
16524;SDS011;8375;33.594;-117.718;2023-08-30T08:22:27;20.88;;;9.73;;
16524;SDS011;8375;33.594;-117.718;2023-08-30T08:24:56;22.65;;;10.43;;
16524;SDS011;8375;33.594;-117.718;2023-08-30T08:27:24;25.92;;;10.27;;
16524;SDS011;8375;33.594;-117.718;2023-08-30T08:29:55;24.90;;;10.35;;
16524;SDS011;8375;33.594;-117.718;2023-08-30T08:32:23;23.58;;;10.40;;
16524;SDS011;8375;33.594;-117.718;2023-08-30T08:34:52;22.38;;;11.18;;
16524;SDS011;8375;33.594;-117.718;2023-08-30T08:37:21;26.27;;;10.90;;
16524;SDS011;8375;33.594;-117.718;2023-08-30T08:39:49;24.90;;;10.63;;
16524;SDS011;8375;33.594;-117.718;2023-08-30T08:42:19;20.05;;;9.30;;
16524;SDS011;8375;33.594;-117.718;2023-08-30T08:44:49;21.67;;;10.85;;
16524;SDS011;8375;33.594;-117.718;2023-08-30T08:47:21;23.42;;;10.48;;
16524;SDS011;8375;33.594;-117.718;2023-08-30T08:49:50;18.60;;;9.52;;
16524;SDS011;8375;33.594;-117.718;2023-08-30T08:52:19;22.98;;;10.20;;
16524;SDS011;8375;33.594;-117.718;2023-08-30T08:54:48;22.63;;;10.07;;
16524;SDS011;8375;33.594;-117.718;2023-08-30T08:57:17;25.42;;;10.35;;
16524;SDS011;8375;33.594;-117.718;2023-08-30T08:59:48;29.67;;;11.07;;
16524;SDS011;8375;33.594;-117.718;2023-08-30T09:02:17;22.75;;;9.90;;
16524;SDS011;8375;33.594;-117.718;2023-08-30T09:04:47;25.45;;;11.23;;
16524;SDS011;8375;33.594;-117.718;2023-08-30T09:07:17;28.85;;;11.27;;
16524;SDS011;8375;33.594;-117.718;2023-08-30T09:09:46;24.52;;;10.30;;
16524;SDS011;8375;33.594;-117.718;2023-08-30T09:12:15;20.48;;;10.05;;
16524;SDS011;8375;33.594;-117.718;2023-08-30T09:14:52;28.67;;;10.55;;
16524;SDS011;8375;33.594;-117.718;2023-08-30T09:17:22;23.23;;;10.93;;
16524;SDS011;8375;33.594;-117.718;2023-08-30T09:19:53;29.20;;;10.52;;
16524;SDS011;8375;33.594;-117.718;2023-08-30T09:22:35;29.27;;;10.13;;
16524;SDS011;8375;33.594;-117.718;2023-08-30T09:25:05;20.85;;;10.65;;
16524;SDS011;8375;33.594;-117.718;2023-08-30T09:27:35;21.88;;;10.75;;
16524;SDS011;8375;33.594;-117.718;2023-08-30T09:30:07;25.55;;;10.18;;
16524;SDS011;8375;33.594;-117.718;2023-08-30T09:32:40;21.92;;;10.20;;
16524;SDS011;8375;33.594;-117.718;2023-08-30T09:35:10;29.45;;;11.32;;
16524;SDS011;8375;33.594;-117.718;2023-08-30T09:37:39;22.02;;;10.43;;
16524;SDS011;8375;33.594;-117.718;2023-08-30T09:40:08;21.63;;;9.70;;
16524;SDS011;8375;33.594;-117.718;2023-08-30T09:42:40;24.75;;;10.68;;
16524;SDS011;8375;33.594;-117.718;2023-08-30T09:45:17;24.77;;;10.57;;
16524;SDS011;8375;33.594;-117.718;2023-08-30T09:47:47;25.75;;;10.35;;
16524;SDS011;8375;33.594;-117.718;2023-08-30T09:50:18;25.15;;;10.18;;
16524;SDS011;8375;33.594;-117.718;2023-08-30T09:52:48;22.17;;;10.32;;
16524;SDS011;8375;33.594;-117.718;2023-08-30T09:55:18;24.88;;;10.82;;
16524;SDS011;8375;33.594;-117.718;2023-08-30T09:57:48;26.77;;;10.98;;
16524;SDS011;8375;33.594;-117.718;2023-08-30T10:00:18;28.95;;;10.85;;
16524;SDS011;8375;33.594;-117.718;2023-08-30T10:02:47;22.98;;;11.13;;
16524;SDS011;8375;33.594;-117.718;2023-08-30T10:05:18;27.35;;;11.15;;
16524;SDS011;8375;33.594;-117.718;2023-08-30T10:07:47;22.48;;;10.48;;
16524;SDS011;8375;33.594;-117.718;2023-08-30T10:10:17;23.05;;;10.38;;
16524;SDS011;8375;33.594;-117.718;2023-08-30T10:12:47;22.92;;;10.15;;
16524;SDS011;8375;33.594;-117.718;2023-08-30T10:15:16;19.17;;;10.35;;
16524;SDS011;8375;33.594;-117.718;2023-08-30T10:17:49;22.92;;;10.63;;
16524;SDS011;8375;33.594;-117.718;2023-08-30T10:20:23;23.83;;;9.95;;
16524;SDS011;8375;33.594;-117.718;2023-08-30T10:22:54;21.33;;;10.45;;
16524;SDS011;8375;33.594;-117.718;2023-08-30T10:25:26;17.70;;;10.30;;
16524;SDS011;8375;33.594;-117.718;2023-08-30T10:27:57;26.77;;;11.57;;
16524;SDS011;8375;33.594;-117.718;2023-08-30T10:30:26;25.70;;;11.05;;
16524;SDS011;8375;33.594;-117.718;2023-08-30T10:32:55;23.27;;;10.73;;
16524;SDS011;8375;33.594;-117.718;2023-08-30T10:35:26;31.08;;;11.18;;
16524;SDS011;8375;33.594;-117.718;2023-08-30T10:37:55;25.70;;;10.75;;
16524;SDS011;8375;33.594;-117.718;2023-08-30T10:40:24;24.45;;;11.10;;
16524;SDS011;8375;33.594;-117.718;2023-08-30T10:43:00;21.52;;;11.02;;
16524;SDS011;8375;33.594;-117.718;2023-08-30T10:45:29;26.43;;;11.37;;
16524;SDS011;8375;33.594;-117.718;2023-08-30T10:47:58;20.13;;;10.37;;
16524;SDS011;8375;33.594;-117.718;2023-08-30T10:50:30;20.17;;;10.55;;
16524;SDS011;8375;33.594;-117.718;2023-08-30T10:52:59;25.13;;;10.23;;
16524;SDS011;8375;33.594;-117.718;2023-08-30T10:55:29;24.40;;;12.05;;
16524;SDS011;8375;33.594;-117.718;2023-08-30T10:57:59;24.47;;;10.67;;
16524;SDS011;8375;33.594;-117.718;2023-08-30T11:00:30;23.87;;;10.40;;
16524;SDS011;8375;33.594;-117.718;2023-08-30T11:02:59;22.63;;;10.25;;
16524;SDS011;8375;33.594;-117.718;2023-08-30T11:05:29;26.77;;;10.85;;
16524;SDS011;8375;33.594;-117.718;2023-08-30T11:07:58;21.07;;;9.67;;
16524;SDS011;8375;33.594;-117.718;2023-08-30T11:10:27;20.73;;;10.73;;
16524;SDS011;8375;33.594;-117.718;2023-08-30T11:12:56;21.27;;;10.75;;
16524;SDS011;8375;33.594;-117.718;2023-08-30T11:15:25;22.57;;;11.10;;
16524;SDS011;8375;33.594;-117.718;2023-08-30T11:18:02;23.10;;;11.27;;
16524;SDS011;8375;33.594;-117.718;2023-08-30T11:20:32;21.88;;;10.82;;
16524;SDS011;8375;33.594;-117.718;2023-08-30T11:23:01;20.57;;;11.20;;
16524;SDS011;8375;33.594;-117.718;2023-08-30T11:25:31;24.50;;;10.65;;
16524;SDS011;8375;33.594;-117.718;2023-08-30T11:28:02;23.00;;;10.93;;
16524;SDS011;8375;33.594;-117.718;2023-08-30T11:30:32;19.65;;;10.75;;
16524;SDS011;8375;33.594;-117.718;2023-08-30T11:33:00;23.03;;;11.33;;
16524;SDS011;8375;33.594;-117.718;2023-08-30T11:35:32;20.67;;;11.20;;
16524;SDS011;8375;33.594;-117.718;2023-08-30T11:38:01;21.60;;;10.10;;
16524;SDS011;8375;33.594;-117.718;2023-08-30T11:40:32;24.17;;;10.37;;
16524;SDS011;8375;33.594;-117.718;2023-08-30T11:43:02;21.27;;;10.10;;
16524;SDS011;8375;33.594;-117.718;2023-08-30T11:45:31;22.00;;;10.43;;
16524;SDS011;8375;33.594;-117.718;2023-08-30T11:48:00;23.40;;;10.47;;
16524;SDS011;8375;33.594;-117.718;2023-08-30T11:50:30;23.20;;;10.43;;
16524;SDS011;8375;33.594;-117.718;2023-08-30T11:53:01;23.47;;;11.23;;
16524;SDS011;8375;33.594;-117.718;2023-08-30T11:55:30;19.43;;;10.20;;
16524;SDS011;8375;33.594;-117.718;2023-08-30T11:58:00;19.33;;;10.03;;
16524;SDS011;8375;33.594;-117.718;2023-08-30T12:00:32;19.57;;;9.90;;
16524;SDS011;8375;33.594;-117.718;2023-08-30T12:03:05;21.30;;;10.00;;
16524;SDS011;8375;33.594;-117.718;2023-08-30T12:05:35;18.80;;;9.77;;
16524;SDS011;8375;33.594;-117.718;2023-08-30T12:08:17;22.37;;;10.17;;
16524;SDS011;8375;33.594;-117.718;2023-08-30T12:10:47;26.83;;;11.27;;
16524;SDS011;8375;33.594;-117.718;2023-08-30T12:13:22;23.53;;;10.43;;
16524;SDS011;8375;33.594;-117.718;2023-08-30T12:15:51;25.50;;;11.07;;
16524;SDS011;8375;33.594;-117.718;2023-08-30T12:18:21;22.03;;;10.50;;
16524;SDS011;8375;33.594;-117.718;2023-08-30T12:20:54;19.93;;;10.00;;
16524;SDS011;8375;33.594;-117.718;2023-08-30T12:23:25;20.27;;;10.03;;
16524;SDS011;8375;33.594;-117.718;2023-08-30T12:25:58;17.53;;;9.53;;
16524;SDS011;8375;33.594;-117.718;2023-08-30T12:28:29;18.17;;;9.27;;
16524;SDS011;8375;33.594;-117.718;2023-08-30T12:30:59;29.83;;;12.13;;
16524;SDS011;8375;33.594;-117.718;2023-08-30T12:33:29;23.80;;;10.47;;
16524;SDS011;8375;33.594;-117.718;2023-08-30T12:36:00;24.10;;;11.93;;
16524;SDS011;8375;33.594;-117.718;2023-08-30T12:38:29;18.90;;;9.73;;
16524;SDS011;8375;33.594;-117.718;2023-08-30T12:40:58;22.07;;;10.13;;
16524;SDS011;8375;33.594;-117.718;2023-08-30T12:43:27;19.90;;;10.33;;
16524;SDS011;8375;33.594;-117.718;2023-08-30T12:45:55;18.83;;;10.43;;
16524;SDS011;8375;33.594;-117.718;2023-08-30T12:48:24;18.77;;;10.60;;
16524;SDS011;8375;33.594;-117.718;2023-08-30T12:50:53;19.33;;;9.90;;
16524;SDS011;8375;33.594;-117.718;2023-08-30T12:53:23;25.37;;;10.80;;
16524;SDS011;8375;33.594;-117.718;2023-08-30T12:55:52;23.67;;;10.13;;
16524;SDS011;8375;33.594;-117.718;2023-08-30T12:58:20;19.03;;;10.20;;
16524;SDS011;8375;33.594;-117.718;2023-08-30T13:00:49;18.23;;;9.37;;
16524;SDS011;8375;33.594;-117.718;2023-08-30T13:03:18;19.07;;;9.80;;
16524;SDS011;8375;33.594;-117.718;2023-08-30T13:05:46;20.50;;;10.03;;
16524;SDS011;8375;33.594;-117.718;2023-08-30T13:08:15;19.43;;;9.63;;
16524;SDS011;8375;33.594;-117.718;2023-08-30T13:10:45;20.43;;;9.77;;
16524;SDS011;8375;33.594;-117.718;2023-08-30T13:13:14;17.87;;;9.83;;
16524;SDS011;8375;33.594;-117.718;2023-08-30T13:15:43;21.37;;;10.00;;
16524;SDS011;8375;33.594;-117.718;2023-08-30T13:18:11;18.40;;;10.20;;
16524;SDS011;8375;33.594;-117.718;2023-08-30T13:20:41;17.80;;;9.63;;
16524;SDS011;8375;33.594;-117.718;2023-08-30T13:23:10;17.47;;;8.87;;
16524;SDS011;8375;33.594;-117.718;2023-08-30T13:25:39;19.93;;;9.80;;
16524;SDS011;8375;33.594;-117.718;2023-08-30T13:28:09;18.57;;;9.90;;
16524;SDS011;8375;33.594;-117.718;2023-08-30T13:30:43;17.67;;;9.20;;
16524;SDS011;8375;33.594;-117.718;2023-08-30T13:33:12;24.40;;;9.20;;
16524;SDS011;8375;33.594;-117.718;2023-08-30T13:35:41;14.10;;;9.27;;
16524;SDS011;8375;33.594;-117.718;2023-08-30T13:38:09;19.60;;;9.53;;
16524;SDS011;8375;33.594;-117.718;2023-08-30T13:40:38;19.20;;;9.10;;
16524;SDS011;8375;33.594;-117.718;2023-08-30T13:43:09;16.93;;;9.33;;
16524;SDS011;8375;33.594;-117.718;2023-08-30T13:45:40;18.00;;;9.30;;
16524;SDS011;8375;33.594;-117.718;2023-08-30T13:48:12;15.50;;;8.67;;
16524;SDS011;8375;33.594;-117.718;2023-08-30T13:50:41;20.57;;;9.67;;
16524;SDS011;8375;33.594;-117.718;2023-08-30T13:53:11;18.73;;;8.90;;
16524;SDS011;8375;33.594;-117.718;2023-08-30T13:55:40;17.03;;;8.97;;
16524;SDS011;8375;33.594;-117.718;2023-08-30T13:58:13;16.50;;;9.00;;
16524;SDS011;8375;33.594;-117.718;2023-08-30T14:00:42;20.57;;;9.10;;
16524;SDS011;8375;33.594;-117.718;2023-08-30T14:03:11;16.07;;;8.73;;
16524;SDS011;8375;33.594;-117.718;2023-08-30T14:05:40;17.73;;;9.50;;
16524;SDS011;8375;33.594;-117.718;2023-08-30T14:08:09;16.42;;;9.50;;
16524;SDS011;8375;33.594;-117.718;2023-08-30T14:10:38;15.00;;;8.63;;
16524;SDS011;8375;33.594;-117.718;2023-08-30T14:13:06;18.95;;;9.60;;
16524;SDS011;8375;33.594;-117.718;2023-08-30T14:15:37;17.92;;;9.98;;
16524;SDS011;8375;33.594;-117.718;2023-08-30T14:18:06;16.45;;;9.77;;
16524;SDS011;8375;33.594;-117.718;2023-08-30T14:20:35;17.42;;;9.93;;
16524;SDS011;8375;33.594;-117.718;2023-08-30T14:23:03;15.35;;;9.63;;